createdAt,value
2018-09-19T00:00:58.804Z,1010.56
2018-09-19T00:01:58.774Z,1010.55
2018-09-19T00:02:58.746Z,1010.49
2018-09-19T00:03:58.725Z,1010.50
2018-09-19T00:04:58.688Z,1010.50
2018-09-19T00:05:58.664Z,1010.51
2018-09-19T00:06:58.634Z,1010.55
2018-09-19T00:07:58.609Z,1010.53
2018-09-19T00:08:58.586Z,1010.56
2018-09-19T00:09:58.552Z,1010.58
2018-09-19T00:10:58.521Z,1010.64
2018-09-19T00:11:58.526Z,1010.60
2018-09-19T00:12:58.465Z,1010.59
2018-09-19T00:13:58.446Z,1010.58
2018-09-19T00:14:58.409Z,1010.57
2018-09-19T00:15:58.381Z,1010.63
2018-09-19T00:16:58.400Z,1010.58
2018-09-19T00:17:58.327Z,1010.60
2018-09-19T00:18:58.305Z,1010.55
2018-09-19T00:19:58.277Z,1010.58
2018-09-19T00:20:58.240Z,1010.55
2018-09-19T00:21:58.215Z,1010.53
2018-09-19T00:22:58.188Z,1010.55
2018-09-19T00:23:58.164Z,1010.58
2018-09-19T00:24:58.130Z,1010.55
2018-09-19T00:25:58.100Z,1010.59
2018-09-19T00:26:58.076Z,1010.57
2018-09-19T00:27:58.044Z,1010.57
2018-09-19T00:28:58.027Z,1010.54
2018-09-19T00:29:57.989Z,1010.52
2018-09-19T00:30:57.961Z,1010.55
2018-09-19T00:31:57.938Z,1010.53
2018-09-19T00:32:57.906Z,1010.56
2018-09-19T00:33:57.876Z,1010.54
2018-09-19T00:34:57.855Z,1010.61
2018-09-19T00:35:57.819Z,1010.57
2018-09-19T00:36:57.793Z,1010.65
2018-09-19T00:37:57.761Z,1010.59
2018-09-19T00:38:57.735Z,1010.60
2018-09-19T00:39:57.715Z,1010.63
2018-09-19T00:40:57.675Z,1010.59
2018-09-19T00:41:57.650Z,1010.63
2018-09-19T00:42:57.623Z,1010.66
2018-09-19T00:43:57.598Z,1010.66
2018-09-19T00:44:57.575Z,1010.64
2018-09-19T00:45:57.536Z,1010.64
2018-09-19T00:46:57.508Z,1010.70
2018-09-19T00:47:57.482Z,1010.65
2018-09-19T00:48:57.454Z,1010.68
2018-09-19T00:49:57.434Z,1010.68
2018-09-19T00:50:57.398Z,1010.66
2018-09-19T00:51:57.371Z,1010.69
2018-09-19T00:52:57.351Z,1010.68
2018-09-19T00:53:57.318Z,1010.63
2018-09-19T00:54:57.311Z,1010.65
2018-09-19T00:55:57.255Z,1010.64
2018-09-19T00:56:57.274Z,1010.66
2018-09-19T00:57:57.201Z,1010.68
2018-09-19T00:58:57.171Z,1010.69
2018-09-19T00:59:57.153Z,1010.67
2018-09-19T01:00:57.114Z,1010.68
2018-09-19T01:01:57.084Z,1010.65
2018-09-19T01:02:57.061Z,1010.65
2018-09-19T01:03:57.029Z,1010.68
2018-09-19T01:04:57.057Z,1010.70
2018-09-19T01:05:56.978Z,1010.69
2018-09-19T01:06:56.946Z,1010.71
2018-09-19T01:07:56.918Z,1010.72
2018-09-19T01:08:56.888Z,1010.73
2018-09-19T01:09:56.862Z,1010.78
2018-09-19T01:10:56.842Z,1010.78
2018-09-19T01:11:56.806Z,1010.81
2018-09-19T01:12:56.777Z,1010.81
2018-09-19T01:13:56.747Z,1010.79
2018-09-19T01:14:56.721Z,1010.80
2018-09-19T01:15:56.696Z,1010.78
2018-09-19T01:16:56.663Z,1010.77
2018-09-19T01:17:56.633Z,1010.76
2018-09-19T01:18:56.604Z,1010.77
2018-09-19T01:19:56.578Z,1010.81
2018-09-19T01:20:56.557Z,1010.81
2018-09-19T01:21:56.526Z,1010.84
2018-09-19T01:22:56.496Z,1010.83
2018-09-19T01:23:56.465Z,1010.86
2018-09-19T01:24:56.453Z,1010.90
2018-09-19T01:25:56.415Z,1010.91
2018-09-19T01:26:56.389Z,1010.91
2018-09-19T01:27:56.358Z,1010.90
2018-09-19T01:28:56.325Z,1010.91
2018-09-19T01:29:56.295Z,1010.91
2018-09-19T01:30:56.285Z,1010.99
2018-09-19T01:31:56.242Z,1010.96
2018-09-19T01:32:56.208Z,1010.99
2018-09-19T01:33:56.184Z,1010.94
2018-09-19T01:34:56.156Z,1011.02
2018-09-19T01:35:56.148Z,1011.01
2018-09-19T01:36:56.101Z,1011.05
2018-09-19T01:37:56.069Z,1011.02
2018-09-19T01:38:56.041Z,1011.06
2018-09-19T01:39:56.015Z,1011.03
2018-09-19T01:40:55.984Z,1011.03
2018-09-19T01:41:55.964Z,1011.03
2018-09-19T01:42:55.928Z,1011.05
2018-09-19T01:43:56.107Z,1011.10
2018-09-19T01:44:55.871Z,1011.12
2018-09-19T01:45:55.845Z,1011.10
2018-09-19T01:46:55.823Z,1011.13
2018-09-19T01:47:55.792Z,1011.15
2018-09-19T01:48:55.757Z,1011.13
2018-09-19T01:49:55.730Z,1011.11
2018-09-19T01:50:55.711Z,1011.15
2018-09-19T01:51:55.689Z,1011.13
2018-09-19T01:52:55.643Z,1011.20
2018-09-19T01:53:55.620Z,1011.19
2018-09-19T01:54:55.590Z,1011.24
2018-09-19T01:55:55.561Z,1011.23
2018-09-19T01:56:55.542Z,1011.25
2018-09-19T01:57:55.502Z,1011.29
2018-09-19T01:58:55.473Z,1011.28
2018-09-19T01:59:55.447Z,1011.33
2018-09-19T02:00:55.418Z,1011.34
2018-09-19T02:01:55.398Z,1011.33
2018-09-19T02:02:55.362Z,1011.33
2018-09-19T02:03:55.335Z,1011.36
2018-09-19T02:04:55.304Z,1011.35
2018-09-19T02:05:55.277Z,1011.38
2018-09-19T02:06:55.256Z,1011.42
2018-09-19T02:07:55.218Z,1011.43
2018-09-19T02:08:55.193Z,1011.47
2018-09-19T02:09:55.162Z,1011.46
2018-09-19T02:10:55.133Z,1011.46
2018-09-19T02:11:55.116Z,1011.43
2018-09-19T02:12:55.076Z,1011.43
2018-09-19T02:13:55.054Z,1011.43
2018-09-19T02:14:55.022Z,1011.44
2018-09-19T02:15:54.992Z,1011.45
2018-09-19T02:16:54.978Z,1011.43
2018-09-19T02:17:54.939Z,1011.41
2018-09-19T02:18:54.908Z,1011.40
2018-09-19T02:19:54.882Z,1011.37
2018-09-19T02:20:54.850Z,1011.39
2018-09-19T02:21:54.821Z,1011.41
2018-09-19T02:22:54.803Z,1011.42
2018-09-19T02:23:54.764Z,1011.39
2018-09-19T02:24:54.743Z,1011.44
2018-09-19T02:25:54.777Z,1011.44
2018-09-19T02:26:54.677Z,1011.44
2018-09-19T02:27:54.661Z,1011.46
2018-09-19T02:28:54.623Z,1011.44
2018-09-19T02:29:54.596Z,1011.44
2018-09-19T02:30:54.566Z,1011.45
2018-09-19T02:31:54.536Z,1011.42
2018-09-19T02:32:54.519Z,1011.40
2018-09-19T02:33:54.478Z,1011.41
2018-09-19T02:34:54.451Z,1011.42
2018-09-19T02:35:54.422Z,1011.40
2018-09-19T02:36:54.399Z,1011.36
2018-09-19T02:37:54.374Z,1011.36
2018-09-19T02:38:54.336Z,1011.39
2018-09-19T02:39:54.311Z,1011.35
2018-09-19T02:40:54.284Z,1011.36
2018-09-19T02:41:54.255Z,1011.37
2018-09-19T02:42:54.241Z,1011.37
2018-09-19T02:43:54.193Z,1011.40
2018-09-19T02:44:54.169Z,1011.40
2018-09-19T02:45:54.144Z,1011.43
2018-09-19T02:46:54.118Z,1011.41
2018-09-19T02:47:54.091Z,1011.41
2018-09-19T02:48:54.066Z,1011.37
2018-09-19T02:49:54.024Z,1011.39
2018-09-19T02:50:53.994Z,1011.40
2018-09-19T02:51:53.965Z,1011.36
2018-09-19T02:52:53.941Z,1011.36
2018-09-19T02:53:53.917Z,1011.41
2018-09-19T02:54:53.887Z,1011.38
2018-09-19T02:55:53.850Z,1011.42
2018-09-19T02:56:53.818Z,1011.40
2018-09-19T02:57:53.795Z,1011.40
2018-09-19T02:58:53.776Z,1011.39
2018-09-19T02:59:53.734Z,1011.39
2018-09-19T03:00:53.711Z,1011.44
2018-09-19T03:01:53.678Z,1011.41
2018-09-19T03:02:53.650Z,1011.43
2018-09-19T03:03:53.627Z,1011.44
2018-09-19T03:04:53.616Z,1011.45
2018-09-19T03:05:53.566Z,1011.49
2018-09-19T03:06:53.533Z,1011.48
2018-09-19T03:07:53.505Z,1011.50
2018-09-19T03:08:53.490Z,1011.47
2018-09-19T03:09:53.451Z,1011.43
2018-09-19T03:10:53.420Z,1011.47
2018-09-19T03:11:53.390Z,1011.43
2018-09-19T03:12:53.374Z,1011.43
2018-09-19T03:13:53.345Z,1011.44
2018-09-19T03:14:53.310Z,1011.37
2018-09-19T03:15:53.279Z,1011.41
2018-09-19T03:16:53.264Z,1011.33
2018-09-19T03:17:53.217Z,1011.32
2018-09-19T03:18:53.198Z,1011.35
2018-09-19T03:19:53.163Z,1011.29
2018-09-19T03:20:53.135Z,1011.32
2018-09-19T03:21:53.105Z,1011.34
2018-09-19T03:22:53.077Z,1011.32
2018-09-19T03:23:54.437Z,1011.33
2018-09-19T03:24:53.018Z,1011.33
2018-09-19T03:25:52.995Z,1011.31
2018-09-19T03:26:52.960Z,1011.33
2018-09-19T03:27:52.932Z,1011.33
2018-09-19T03:28:52.905Z,1011.33
2018-09-19T03:29:52.884Z,1011.31
2018-09-19T03:30:52.844Z,1011.33
2018-09-19T03:31:52.832Z,1011.32
2018-09-19T03:32:52.785Z,1011.29
2018-09-19T03:33:52.753Z,1011.29
2018-09-19T03:34:52.733Z,1011.28
2018-09-19T03:35:52.697Z,1011.28
2018-09-19T03:36:52.666Z,1011.34
2018-09-19T03:37:52.639Z,1011.32
2018-09-19T03:38:52.613Z,1011.33
2018-09-19T03:39:52.590Z,1011.29
2018-09-19T03:40:52.569Z,1011.29
2018-09-19T03:41:52.521Z,1011.31
2018-09-19T03:42:52.493Z,1011.29
2018-09-19T03:43:52.465Z,1011.30
2018-09-19T03:44:52.444Z,1011.29
2018-09-19T03:45:52.404Z,1011.26
2018-09-19T03:46:52.379Z,1011.28
2018-09-19T03:47:52.352Z,1011.22
2018-09-19T03:48:52.317Z,1011.25
2018-09-19T03:49:52.302Z,1011.27
2018-09-19T03:50:52.265Z,1011.29
2018-09-19T03:51:52.230Z,1011.28
2018-09-19T03:52:52.206Z,1011.32
2018-09-19T03:53:52.173Z,1011.26
2018-09-19T03:54:52.152Z,1011.34
2018-09-19T03:55:52.115Z,1011.34
2018-09-19T03:56:52.084Z,1011.34
2018-09-19T03:57:52.055Z,1011.36
2018-09-19T03:58:52.033Z,1011.34
2018-09-19T03:59:52.020Z,1011.33
2018-09-19T04:00:51.968Z,1011.36
2018-09-19T04:01:51.940Z,1011.32
2018-09-19T04:02:51.911Z,1011.30
2018-09-19T04:03:51.884Z,1011.32
2018-09-19T04:04:51.865Z,1011.33
2018-09-19T04:05:51.824Z,1011.35
2018-09-19T04:06:51.796Z,1011.30
2018-09-19T04:07:51.764Z,1011.39
2018-09-19T04:08:51.742Z,1011.32
2018-09-19T04:09:51.718Z,1011.36
2018-09-19T04:10:51.676Z,1011.36
2018-09-19T04:11:51.651Z,1011.40
2018-09-19T04:12:51.617Z,1011.37
2018-09-19T04:13:51.592Z,1011.41
2018-09-19T04:14:51.572Z,1011.36
2018-09-19T04:15:51.536Z,1011.39
2018-09-19T04:16:51.503Z,1011.39
2018-09-19T04:17:51.501Z,1011.41
2018-09-19T04:18:51.440Z,1011.35
2018-09-19T04:19:51.410Z,1011.37
2018-09-19T04:20:51.390Z,1011.38
2018-09-19T04:21:51.365Z,1011.39
2018-09-19T04:22:51.324Z,1011.40
2018-09-19T04:23:51.293Z,1011.39
2018-09-19T04:24:51.264Z,1011.40
2018-09-19T04:25:51.241Z,1011.41
2018-09-19T04:26:51.206Z,1011.43
2018-09-19T04:27:51.176Z,1011.41
2018-09-19T04:28:51.147Z,1011.44
2018-09-19T04:29:51.145Z,1011.47
2018-09-19T04:30:51.096Z,1011.45
2018-09-19T04:31:51.058Z,1011.44
2018-09-19T04:32:51.032Z,1011.42
2018-09-19T04:33:51.006Z,1011.44
2018-09-19T04:34:50.996Z,1011.42
2018-09-19T04:35:50.950Z,1011.43
2018-09-19T04:36:50.923Z,1011.44
2018-09-19T04:37:50.882Z,1011.41
2018-09-19T04:38:50.852Z,1011.44
2018-09-19T04:39:50.821Z,1011.43
2018-09-19T04:40:50.797Z,1011.39
2018-09-19T04:41:50.780Z,1011.48
2018-09-19T04:42:50.733Z,1011.44
2018-09-19T04:43:50.704Z,1011.47
2018-09-19T04:44:50.677Z,1011.50
2018-09-19T04:45:50.650Z,1011.54
2018-09-19T04:46:50.629Z,1011.48
2018-09-19T04:47:50.593Z,1011.46
2018-09-19T04:48:50.558Z,1011.50
2018-09-19T04:49:50.535Z,1011.50
2018-09-19T04:50:50.502Z,1011.55
2018-09-19T04:51:50.492Z,1011.50
2018-09-19T04:52:50.437Z,1011.50
2018-09-19T04:53:50.410Z,1011.49
2018-09-19T04:54:50.380Z,1011.49
2018-09-19T04:55:50.350Z,1011.47
2018-09-19T04:56:50.329Z,1011.48
2018-09-19T04:57:50.292Z,1011.42
2018-09-19T04:58:50.262Z,1011.47
2018-09-19T04:59:50.232Z,1011.45
2018-09-19T05:00:50.222Z,1011.44
2018-09-19T05:01:50.182Z,1011.45
2018-09-19T05:02:50.149Z,1011.42
2018-09-19T05:03:50.114Z,1011.42
2018-09-19T05:04:50.083Z,1011.42
2018-09-19T05:05:50.069Z,1011.39
2018-09-19T05:06:50.033Z,1011.44
2018-09-19T05:07:49.994Z,1011.43
2018-09-19T05:08:49.966Z,1011.42
2018-09-19T05:09:49.937Z,1011.43
2018-09-19T05:10:49.905Z,1011.40
2018-09-19T05:11:49.884Z,1011.44
2018-09-19T05:12:49.845Z,1011.46
2018-09-19T05:13:49.815Z,1011.51
2018-09-19T05:14:49.786Z,1011.50
2018-09-19T05:15:49.756Z,1011.51
2018-09-19T05:16:49.735Z,1011.48
2018-09-19T05:17:49.700Z,1011.51
2018-09-19T05:18:49.668Z,1011.48
2018-09-19T05:19:49.638Z,1011.49
2018-09-19T05:20:49.606Z,1011.53
2018-09-19T05:21:49.593Z,1011.55
2018-09-19T05:22:49.557Z,1011.56
2018-09-19T05:23:49.518Z,1011.54
2018-09-19T05:24:49.495Z,1011.60
2018-09-19T05:25:49.456Z,1011.57
2018-09-19T05:26:49.435Z,1011.57
2018-09-19T05:27:49.419Z,1011.57
2018-09-19T05:28:49.379Z,1011.58
2018-09-19T05:29:49.342Z,1011.62
2018-09-19T05:30:49.312Z,1011.65
2018-09-19T05:31:49.278Z,1011.60
2018-09-19T05:32:49.255Z,1011.65
2018-09-19T05:33:49.223Z,1011.66
2018-09-19T05:34:49.193Z,1011.65
2018-09-19T05:35:49.159Z,1011.66
2018-09-19T05:36:49.131Z,1011.67
2018-09-19T05:37:49.115Z,1011.67
2018-09-19T05:38:49.084Z,1011.71
2018-09-19T05:39:49.039Z,1011.76
2018-09-19T05:40:49.014Z,1011.75
2018-09-19T05:41:48.983Z,1011.72
2018-09-19T05:42:48.972Z,1011.78
2018-09-19T05:43:48.924Z,1011.79
2018-09-19T05:44:48.893Z,1011.78
2018-09-19T05:45:48.862Z,1011.77
2018-09-19T05:46:48.835Z,1011.72
2018-09-19T05:47:48.802Z,1011.73
2018-09-19T05:48:48.789Z,1011.74
2018-09-19T05:49:48.743Z,1011.70
2018-09-19T05:50:48.714Z,1011.71
2018-09-19T05:51:48.697Z,1011.72
2018-09-19T05:52:48.660Z,1011.70
2018-09-19T05:53:48.684Z,1011.71
2018-09-19T05:54:48.605Z,1011.72
2018-09-19T05:55:48.570Z,1011.69
2018-09-19T05:56:48.558Z,1011.73
2018-09-19T05:57:48.505Z,1011.73
2018-09-19T05:58:48.486Z,1011.75
2018-09-19T05:59:48.449Z,1011.74
2018-09-19T06:00:48.413Z,1011.64
2018-09-19T06:01:48.384Z,1011.67
2018-09-19T06:02:48.358Z,1011.64
2018-09-19T06:03:48.333Z,1011.62
2018-09-19T06:04:48.325Z,1011.60
2018-09-19T06:05:48.270Z,1011.62
2018-09-19T06:06:48.240Z,1011.61
2018-09-19T06:07:48.205Z,1011.62
2018-09-19T06:08:48.189Z,1011.63
2018-09-19T06:09:48.149Z,1011.57
2018-09-19T06:10:48.119Z,1011.58
2018-09-19T06:11:48.088Z,1011.56
2018-09-19T06:12:48.121Z,1011.59
2018-09-19T06:13:48.033Z,1011.57
2018-09-19T06:14:47.997Z,1011.58
2018-09-19T06:15:47.970Z,1011.57
2018-09-19T06:16:47.937Z,1011.56
2018-09-19T06:17:47.908Z,1011.59
2018-09-19T06:18:47.896Z,1011.57
2018-09-19T06:19:47.851Z,1011.55
2018-09-19T06:20:47.827Z,1011.56
2018-09-19T06:21:47.790Z,1011.54
2018-09-19T06:22:47.761Z,1011.46
2018-09-19T06:23:47.732Z,1011.49
2018-09-19T06:24:47.756Z,1011.46
2018-09-19T06:25:47.675Z,1011.48
2018-09-19T06:26:47.659Z,1011.50
2018-09-19T06:27:47.614Z,1011.49
2018-09-19T06:28:47.585Z,1011.52
2018-09-19T06:29:47.567Z,1011.51
2018-09-19T06:30:47.529Z,1011.53
2018-09-19T06:31:47.495Z,1011.51
2018-09-19T06:32:47.528Z,1011.50
2018-09-19T06:33:47.455Z,1011.49
2018-09-19T06:34:47.423Z,1011.53
2018-09-19T06:35:47.379Z,1011.54
2018-09-19T06:36:47.349Z,1011.52
2018-09-19T06:37:47.321Z,1011.55
2018-09-19T06:38:47.292Z,1011.52
2018-09-19T06:39:47.269Z,1011.52
2018-09-19T06:40:47.407Z,1011.49
2018-09-19T06:41:47.203Z,1011.52
2018-09-19T06:42:47.178Z,1011.49
2018-09-19T06:43:47.150Z,1011.53
2018-09-19T06:44:47.127Z,1011.53
2018-09-19T06:45:47.143Z,1011.54
2018-09-19T06:46:47.122Z,1011.53
2018-09-19T06:47:47.029Z,1011.54
2018-09-19T06:48:47.004Z,1011.50
2018-09-19T06:49:46.980Z,1011.48
2018-09-19T06:50:46.945Z,1011.47
2018-09-19T06:51:46.958Z,1011.50
2018-09-19T06:52:46.885Z,1011.47
2018-09-19T06:53:46.866Z,1011.45
2018-09-19T06:54:46.834Z,1011.44
2018-09-19T06:55:46.804Z,1011.44
2018-09-19T06:56:46.767Z,1011.41
2018-09-19T06:57:46.743Z,1011.35
2018-09-19T06:58:46.713Z,1011.37
2018-09-19T06:59:46.707Z,1011.35
2018-09-19T07:00:46.665Z,1011.35
2018-09-19T07:01:46.625Z,1011.31
2018-09-19T07:02:46.596Z,1011.32
2018-09-19T07:03:46.567Z,1011.29
2018-09-19T07:04:46.539Z,1011.26
2018-09-19T07:05:46.574Z,1011.21
2018-09-19T07:06:46.485Z,1011.21
2018-09-19T07:07:46.452Z,1011.19
2018-09-19T07:08:46.475Z,1011.17
2018-09-19T07:09:46.397Z,1011.17
2018-09-19T07:10:46.379Z,1011.15
2018-09-19T07:11:46.341Z,1011.17
2018-09-19T07:12:46.314Z,1011.23
2018-09-19T07:13:46.280Z,1011.25
2018-09-19T07:14:46.260Z,1011.23
2018-09-19T07:15:46.233Z,1011.24
2018-09-19T07:16:46.195Z,1011.30
2018-09-19T07:17:46.167Z,1011.32
2018-09-19T07:18:46.196Z,1011.34
2018-09-19T07:19:46.108Z,1011.32
2018-09-19T07:20:46.091Z,1011.36
2018-09-19T07:21:46.058Z,1011.36
2018-09-19T07:22:46.026Z,1011.37
2018-09-19T07:23:46.054Z,1011.38
2018-09-19T07:24:45.968Z,1011.37
2018-09-19T07:25:45.949Z,1011.41
2018-09-19T07:26:45.912Z,1011.39
2018-09-19T07:27:45.881Z,1011.40
2018-09-19T07:28:45.857Z,1011.47
2018-09-19T07:29:45.847Z,1011.51
2018-09-19T07:30:45.819Z,1011.49
2018-09-19T07:31:45.770Z,1011.47
2018-09-19T07:32:45.739Z,1011.47
2018-09-19T07:33:45.712Z,1011.43
2018-09-19T07:34:45.685Z,1011.47
2018-09-19T07:35:45.661Z,1011.47
2018-09-19T07:36:45.638Z,1011.50
2018-09-19T07:37:45.601Z,1011.48
2018-09-19T07:38:45.573Z,1011.43
2018-09-19T07:39:45.548Z,1011.39
2018-09-19T07:40:45.516Z,1011.42
2018-09-19T07:41:45.497Z,1011.43
2018-09-19T07:42:45.466Z,1011.39
2018-09-19T07:43:45.436Z,1011.38
2018-09-19T07:44:45.404Z,1011.37
2018-09-19T07:45:45.378Z,1011.32
2018-09-19T07:46:45.432Z,1011.27
2018-09-19T07:47:45.320Z,1011.30
2018-09-19T07:48:45.297Z,1011.28
2018-09-19T07:49:45.263Z,1011.30
2018-09-19T07:50:45.237Z,1011.31
2018-09-19T07:51:45.232Z,1011.35
2018-09-19T07:52:45.182Z,1011.37
2018-09-19T07:53:45.154Z,1011.41
2018-09-19T07:54:45.181Z,1011.44
2018-09-19T07:55:45.263Z,1011.44
2018-09-19T07:56:45.085Z,1011.52
2018-09-19T07:57:45.044Z,1011.54
2018-09-19T07:58:45.020Z,1011.58
2018-09-19T07:59:44.990Z,1011.65
2018-09-19T08:00:45.073Z,1011.61
2018-09-19T08:01:44.942Z,1011.61
2018-09-19T08:02:44.905Z,1011.64
2018-09-19T08:03:44.875Z,1011.62
2018-09-19T08:04:44.847Z,1011.63
2018-09-19T08:05:44.822Z,1011.65
2018-09-19T08:06:44.802Z,1011.65
2018-09-19T08:07:44.765Z,1011.68
2018-09-19T08:08:44.736Z,1011.66
2018-09-19T08:09:44.710Z,1011.68
2018-09-19T08:10:44.686Z,1011.71
2018-09-19T08:11:44.675Z,1011.73
2018-09-19T08:12:44.628Z,1011.80
2018-09-19T08:13:44.602Z,1011.70
2018-09-19T08:14:44.571Z,1011.68
2018-09-19T08:15:44.547Z,1011.65
2018-09-19T08:16:44.575Z,1011.69
2018-09-19T08:17:44.499Z,1011.70
2018-09-19T08:18:44.469Z,1011.72
2018-09-19T08:19:44.438Z,1011.76
2018-09-19T08:20:44.409Z,1011.74
2018-09-19T08:21:44.383Z,1011.74
2018-09-19T08:22:44.436Z,1011.72
2018-09-19T08:23:44.328Z,1011.73
2018-09-19T08:24:44.303Z,1011.67
2018-09-19T08:25:44.277Z,1011.63
2018-09-19T08:26:44.249Z,1011.64
2018-09-19T08:27:44.239Z,1011.61
2018-09-19T08:28:44.255Z,1011.60
2018-09-19T08:29:44.184Z,1011.62
2018-09-19T08:30:44.143Z,1011.53
2018-09-19T08:31:44.142Z,1011.52
2018-09-19T08:32:44.091Z,1011.46
2018-09-19T08:33:44.067Z,1011.50
2018-09-19T08:34:44.042Z,1011.45
2018-09-19T08:35:44.001Z,1011.51
2018-09-19T08:36:43.979Z,1011.57
2018-09-19T08:37:43.972Z,1011.64
2018-09-19T08:38:43.922Z,1011.65
2018-09-19T08:39:43.898Z,1011.65
2018-09-19T08:40:43.950Z,1011.61
2018-09-19T08:41:43.843Z,1011.64
2018-09-19T08:42:43.816Z,1011.59
2018-09-19T08:43:43.800Z,1011.56
2018-09-19T08:44:43.760Z,1011.55
2018-09-19T08:45:43.733Z,1011.51
2018-09-19T08:46:43.716Z,1011.49
2018-09-19T08:47:43.712Z,1011.49
2018-09-19T08:48:43.665Z,1011.52
2018-09-19T08:49:43.636Z,1011.54
2018-09-19T08:50:43.629Z,1011.56
2018-09-19T08:51:43.579Z,1011.47
2018-09-19T08:52:43.557Z,1011.48
2018-09-19T08:53:43.535Z,1011.44
2018-09-19T08:54:43.529Z,1011.42
2018-09-19T08:55:43.471Z,1011.43
2018-09-19T08:56:43.442Z,1011.37
2018-09-19T08:57:43.414Z,1011.40
2018-09-19T08:58:43.399Z,1011.36
2018-09-19T08:59:43.363Z,1011.36
2018-09-19T09:00:43.340Z,1011.33
2018-09-19T09:01:43.311Z,1011.36
2018-09-19T09:02:43.287Z,1011.29
2018-09-19T09:03:43.265Z,1011.27
2018-09-19T09:04:43.228Z,1011.27
2018-09-19T09:05:43.207Z,1011.29
2018-09-19T09:06:43.177Z,1011.29
2018-09-19T09:07:43.150Z,1011.27
2018-09-19T09:08:43.126Z,1011.28
2018-09-19T09:09:43.096Z,1011.23
2018-09-19T09:10:43.075Z,1011.28
2018-09-19T09:11:43.044Z,1011.22
2018-09-19T09:12:43.116Z,1011.21
2018-09-19T09:13:43.011Z,1011.23
2018-09-19T09:14:42.966Z,1011.16
2018-09-19T09:15:42.943Z,1011.15
2018-09-19T09:16:42.912Z,1011.22
2018-09-19T09:17:42.890Z,1011.22
2018-09-19T09:18:42.862Z,1011.17
2018-09-19T09:19:42.896Z,1011.18
2018-09-19T09:20:42.814Z,1011.17
2018-09-19T09:21:42.781Z,1011.18
2018-09-19T09:22:42.756Z,1011.17
2018-09-19T09:23:42.729Z,1011.13
2018-09-19T09:24:42.709Z,1011.13
2018-09-19T09:25:42.680Z,1011.13
2018-09-19T09:26:42.707Z,1011.12
2018-09-19T09:27:42.624Z,1011.15
2018-09-19T09:28:42.599Z,1011.10
2018-09-19T09:29:42.584Z,1011.12
2018-09-19T09:30:42.552Z,1011.13
2018-09-19T09:31:42.525Z,1011.15
2018-09-19T09:32:42.499Z,1011.12
2018-09-19T09:33:42.473Z,1011.13
2018-09-19T09:34:42.459Z,1011.08
2018-09-19T09:35:42.418Z,1011.07
2018-09-19T09:36:42.439Z,1011.10
2018-09-19T09:37:42.366Z,1011.08
2018-09-19T09:38:42.343Z,1011.09
2018-09-19T09:39:42.324Z,1011.11
2018-09-19T09:40:42.296Z,1011.10
2018-09-19T09:41:42.265Z,1011.06
2018-09-19T09:42:42.240Z,1011.10
2018-09-19T09:43:42.218Z,1011.08
2018-09-19T09:44:42.201Z,1011.15
2018-09-19T09:45:42.160Z,1011.09
2018-09-19T09:46:42.141Z,1011.06
2018-09-19T09:47:42.108Z,1011.06
2018-09-19T09:48:42.083Z,1010.98
2018-09-19T09:49:42.065Z,1011.00
2018-09-19T09:50:42.034Z,1011.00
2018-09-19T09:51:42.010Z,1011.01
2018-09-19T09:52:41.979Z,1010.92
2018-09-19T09:53:41.956Z,1010.93
2018-09-19T09:54:41.939Z,1010.93
2018-09-19T09:55:41.905Z,1011.00
2018-09-19T09:56:41.877Z,1010.95
2018-09-19T09:57:41.858Z,1010.89
2018-09-19T09:58:41.830Z,1010.95
2018-09-19T09:59:41.824Z,1010.89
2018-09-19T10:00:41.777Z,1010.89
2018-09-19T10:01:41.753Z,1010.87
2018-09-19T10:02:41.733Z,1010.84
2018-09-19T10:03:41.706Z,1010.81
2018-09-19T10:04:41.676Z,1010.78
2018-09-19T10:05:41.659Z,1010.73
2018-09-19T10:06:41.629Z,1010.70
2018-09-19T10:07:41.601Z,1010.76
2018-09-19T10:08:41.572Z,1010.73
2018-09-19T10:09:41.549Z,1010.75
2018-09-19T10:10:41.535Z,1010.73
2018-09-19T10:11:41.500Z,1010.73
2018-09-19T10:12:41.483Z,1010.68
2018-09-19T10:13:41.499Z,1010.69
2018-09-19T10:14:41.423Z,1010.67
2018-09-19T10:15:41.411Z,1010.73
2018-09-19T10:16:41.373Z,1010.70
2018-09-19T10:17:41.353Z,1010.65
2018-09-19T10:18:41.327Z,1010.62
2018-09-19T10:19:41.295Z,1010.57
2018-09-19T10:20:41.285Z,1010.50
2018-09-19T10:21:41.251Z,1010.46
2018-09-19T10:22:41.221Z,1010.52
2018-09-19T10:23:41.197Z,1010.43
2018-09-19T10:24:41.170Z,1010.41
2018-09-19T10:25:41.146Z,1010.41
2018-09-19T10:26:41.134Z,1010.40
2018-09-19T10:27:41.127Z,1010.54
2018-09-19T10:28:41.072Z,1010.47
2018-09-19T10:29:41.086Z,1010.47
2018-09-19T10:30:41.024Z,1010.50
2018-09-19T10:31:41.005Z,1010.49
2018-09-19T10:32:40.993Z,1010.42
2018-09-19T10:33:40.948Z,1010.49
2018-09-19T10:34:40.922Z,1010.47
2018-09-19T10:35:40.901Z,1010.43
2018-09-19T10:36:40.873Z,1010.51
2018-09-19T10:37:40.848Z,1010.44
2018-09-19T10:38:40.835Z,1010.47
2018-09-19T10:39:40.798Z,1010.42
2018-09-19T10:40:40.772Z,1010.44
2018-09-19T10:41:40.750Z,1010.42
2018-09-19T10:42:40.733Z,1010.45
2018-09-19T10:43:40.709Z,1010.43
2018-09-19T10:44:40.677Z,1010.40
2018-09-19T10:45:40.655Z,1010.42
2018-09-19T10:46:40.632Z,1010.44
2018-09-19T10:47:40.604Z,1010.41
2018-09-19T10:48:40.588Z,1010.48
2018-09-19T10:49:40.558Z,1010.46
2018-09-19T10:50:40.531Z,1010.47
2018-09-19T10:51:40.509Z,1010.50
2018-09-19T10:52:40.482Z,1010.53
2018-09-19T10:53:40.463Z,1010.52
2018-09-19T10:54:40.433Z,1010.45
2018-09-19T10:55:40.428Z,1010.47
2018-09-19T10:56:40.383Z,1010.44
2018-09-19T10:57:40.366Z,1010.44
2018-09-19T10:58:40.359Z,1010.47
2018-09-19T10:59:40.312Z,1010.52
2018-09-19T11:00:40.289Z,1010.51
2018-09-19T11:01:40.267Z,1010.51
2018-09-19T11:02:40.241Z,1010.53
2018-09-19T11:03:40.214Z,1010.48
2018-09-19T11:04:40.202Z,1010.43
2018-09-19T11:05:40.167Z,1010.45
2018-09-19T11:06:40.142Z,1010.49
2018-09-19T11:07:40.123Z,1010.45
2018-09-19T11:08:40.105Z,1010.33
2018-09-19T11:09:40.080Z,1010.41
2018-09-19T11:10:40.048Z,1010.30
2018-09-19T11:11:40.029Z,1010.31
2018-09-19T11:12:39.994Z,1010.32
2018-09-19T11:13:39.980Z,1010.34
2018-09-19T11:14:39.965Z,1010.24
2018-09-19T11:15:39.929Z,1010.32
2018-09-19T11:16:39.903Z,1010.33
2018-09-19T11:17:39.881Z,1010.31
2018-09-19T11:18:39.861Z,1010.35
2018-09-19T11:19:39.842Z,1010.42
2018-09-19T11:20:39.811Z,1010.40
2018-09-19T11:21:39.795Z,1010.20
2018-09-19T11:22:39.763Z,1010.40
2018-09-19T11:23:39.742Z,1010.41
2018-09-19T11:24:39.747Z,1010.44
2018-09-19T11:25:39.692Z,1010.41
2018-09-19T11:26:39.667Z,1010.38
2018-09-19T11:27:39.638Z,1010.38
2018-09-19T11:28:39.622Z,1010.43
2018-09-19T11:29:39.604Z,1010.45
2018-09-19T11:30:39.581Z,1010.48
2018-09-19T11:31:39.549Z,1010.53
2018-09-19T11:32:39.528Z,1010.44
2018-09-19T11:33:39.557Z,1010.46
2018-09-19T11:34:39.485Z,1010.49
2018-09-19T11:35:39.465Z,1010.46
2018-09-19T11:36:39.431Z,1010.53
2018-09-19T11:37:39.408Z,1010.52
2018-09-19T11:38:39.388Z,1010.59
2018-09-19T11:39:39.361Z,1010.58
2018-09-19T11:40:39.577Z,1010.61
2018-09-19T11:41:39.318Z,1010.59
2018-09-19T11:42:39.291Z,1010.54
2018-09-19T11:43:39.266Z,1010.55
2018-09-19T11:44:39.244Z,1010.58
2018-09-19T11:45:39.223Z,1010.50
2018-09-19T11:46:39.208Z,1010.56
2018-09-19T11:47:39.180Z,1010.55
2018-09-19T11:48:39.211Z,1010.52
2018-09-19T11:49:39.129Z,1010.49
2018-09-19T11:50:39.110Z,1010.51
2018-09-19T11:51:39.091Z,1010.51
2018-09-19T11:52:39.057Z,1010.56
2018-09-19T11:53:39.038Z,1010.54
2018-09-19T11:54:39.010Z,1010.53
2018-09-19T11:55:38.988Z,1010.51
2018-09-19T11:56:38.979Z,1010.48
2018-09-19T11:57:38.940Z,1010.57
2018-09-19T11:58:38.922Z,1010.60
2018-09-19T11:59:38.895Z,1010.61
2018-09-19T12:00:38.872Z,1010.56
2018-09-19T12:01:38.865Z,1010.52
2018-09-19T12:02:38.824Z,1010.47
2018-09-19T12:03:38.800Z,1010.55
2018-09-19T12:04:38.779Z,1010.55
2018-09-19T12:05:38.754Z,1010.51